createdAt,value
2018-08-03T00:57:45.395Z,16.20
2018-08-03T01:00:14.029Z,17.23
2018-08-03T01:02:42.425Z,16.33
2018-08-03T01:05:11.485Z,16.27
2018-08-03T01:07:39.990Z,16.70
2018-08-03T01:10:08.572Z,16.87
2018-08-03T01:12:37.503Z,18.30
2018-08-03T01:15:06.011Z,17.13
2018-08-03T01:17:34.647Z,17.43
2018-08-03T01:20:03.240Z,17.23
2018-08-03T01:22:31.648Z,17.10
2018-08-03T01:25:00.360Z,17.57
2018-08-03T01:27:29.322Z,17.10
2018-08-03T01:29:57.743Z,16.63
2018-08-03T01:32:26.098Z,15.93
2018-08-03T01:34:54.715Z,16.83
2018-08-03T01:37:23.158Z,16.00
2018-08-03T01:39:51.572Z,17.80
2018-08-03T01:42:21.115Z,16.73
2018-08-03T01:44:50.156Z,17.43
2018-08-03T01:47:18.561Z,17.87
2018-08-03T01:49:48.939Z,17.33
2018-08-03T01:52:17.165Z,17.90
2018-08-03T01:54:45.854Z,18.20
2018-08-03T01:57:14.705Z,17.93
2018-08-03T01:59:43.115Z,18.57
2018-08-03T02:02:11.511Z,18.57
2018-08-03T02:04:39.892Z,18.57
2018-08-03T02:07:09.889Z,19.30
2018-08-03T02:09:38.269Z,18.20
2018-08-03T02:12:06.655Z,17.20
2018-08-03T02:14:35.261Z,18.00
2018-08-03T02:17:04.724Z,17.97
2018-08-03T02:19:33.360Z,18.60
2018-08-03T02:22:01.868Z,18.77
2018-08-03T02:24:31.557Z,18.07
2018-08-03T02:27:00.855Z,18.80
2018-08-03T02:29:29.264Z,19.33
2018-08-03T02:31:57.679Z,17.83
2018-08-03T02:34:26.631Z,18.90
2018-08-03T02:36:55.211Z,18.53
2018-08-03T02:39:23.626Z,17.80
2018-08-03T02:41:51.992Z,18.93
2018-08-03T02:44:20.403Z,18.47
2018-08-03T02:46:49.401Z,19.60
2018-08-03T02:49:17.786Z,19.63
2018-08-03T02:51:46.189Z,19.20
2018-08-03T02:54:14.771Z,19.73
2018-08-03T02:56:43.151Z,19.57
2018-08-03T02:59:12.034Z,20.63
2018-08-03T03:01:40.843Z,19.13
2018-08-03T03:04:09.374Z,19.30
2018-08-03T03:06:38.059Z,19.90
2018-08-03T03:09:10.643Z,18.80
2018-08-03T03:11:39.740Z,19.10
2018-08-03T03:14:08.354Z,18.30
2018-08-03T03:16:37.097Z,19.47
2018-08-03T03:19:05.525Z,19.53
2018-08-03T03:21:34.274Z,20.50
2018-08-03T03:24:02.676Z,21.13
2018-08-03T03:26:31.434Z,20.93
2018-08-03T03:29:00.548Z,21.27
2018-08-03T03:31:29.284Z,21.07
2018-08-03T03:33:57.678Z,21.60
2018-08-03T03:36:26.396Z,22.50
2018-08-03T03:38:54.941Z,21.23
2018-08-03T03:41:23.380Z,22.63
2018-08-03T03:43:51.761Z,22.33
2018-08-03T03:46:20.332Z,23.33
2018-08-03T03:48:49.002Z,22.97
2018-08-03T03:51:20.288Z,23.50
2018-08-03T03:53:49.049Z,23.87
2018-08-03T03:56:17.740Z,24.17
2018-08-03T03:58:48.305Z,23.00
2018-08-03T04:01:16.703Z,24.33
2018-08-03T04:03:45.147Z,24.17
2018-08-03T04:06:14.738Z,24.13
2018-08-03T04:08:43.919Z,24.50
2018-08-03T04:11:12.068Z,24.07
2018-08-03T04:13:40.702Z,23.03
2018-08-03T04:16:09.989Z,24.53
2018-08-03T04:18:38.360Z,24.63
2018-08-03T04:21:06.963Z,23.77
2018-08-03T04:23:35.335Z,24.57
2018-08-03T04:26:03.968Z,23.97
2018-08-03T04:28:32.716Z,24.37
2018-08-03T04:31:01.492Z,23.77
2018-08-03T04:33:29.864Z,23.57
2018-08-03T04:35:58.660Z,22.47
2018-08-03T04:38:27.228Z,22.10
2018-08-03T04:40:56.346Z,22.27
2018-08-03T04:43:24.720Z,22.87
2018-08-03T04:45:53.366Z,22.97
2018-08-03T04:48:21.899Z,22.73
2018-08-03T04:50:50.737Z,22.70
2018-08-03T04:53:19.361Z,23.50
2018-08-03T04:55:48.754Z,23.03
2018-08-03T04:58:17.631Z,21.90
2018-08-03T05:00:46.442Z,22.50
2018-08-03T05:03:15.612Z,21.77
2018-08-03T05:05:44.024Z,21.83
2018-08-03T05:08:12.858Z,22.07
2018-08-03T05:10:41.783Z,21.40
2018-08-03T05:13:10.406Z,21.10
2018-08-03T05:15:38.872Z,20.70
2018-08-03T05:18:07.644Z,21.87
2018-08-03T05:20:37.487Z,21.37
2018-08-03T05:23:06.082Z,20.70
2018-08-03T05:25:34.523Z,20.63
2018-08-03T05:28:03.192Z,19.13
2018-08-03T05:30:32.660Z,19.87
2018-08-03T05:33:02.131Z,19.23
2018-08-03T05:35:30.867Z,19.87
2018-08-03T05:37:59.698Z,18.67
2018-08-03T05:40:28.768Z,20.33
2018-08-03T05:42:57.405Z,21.23
2018-08-03T05:45:25.814Z,20.40
2018-08-03T05:47:55.478Z,21.90
2018-08-03T05:50:23.962Z,22.10
2018-08-03T05:52:53.048Z,20.97
2018-08-03T05:55:22.125Z,21.13
2018-08-03T05:57:51.891Z,21.20
2018-08-03T06:00:20.257Z,20.63
2018-08-03T06:02:48.859Z,20.23
2018-08-03T06:05:17.492Z,19.33
2018-08-03T06:07:46.130Z,16.73
2018-08-03T06:10:14.561Z,17.40
2018-08-03T06:12:43.260Z,17.33
2018-08-03T06:15:14.694Z,17.37
2018-08-03T06:17:43.281Z,18.13
2018-08-03T06:20:13.501Z,18.27
2018-08-03T06:22:42.616Z,18.53
2018-08-03T06:25:11.936Z,18.93
2018-08-03T06:27:41.435Z,17.40
2018-08-03T06:30:11.675Z,18.30
2018-08-03T06:32:40.475Z,17.87
2018-08-03T06:35:09.014Z,17.60
2018-08-03T06:37:37.863Z,18.40
2018-08-03T06:40:06.390Z,17.23
2018-08-03T06:42:35.672Z,17.73
2018-08-03T06:45:04.814Z,16.70
2018-08-03T06:47:34.045Z,19.45
2018-08-03T06:50:02.472Z,17.57
2018-08-03T06:52:32.292Z,19.10
2018-08-03T06:55:00.848Z,17.70
2018-08-03T06:57:29.812Z,16.97
2018-08-03T06:59:58.480Z,16.07
2018-08-03T07:02:26.893Z,17.77
2018-08-03T07:04:55.933Z,17.82
2018-08-03T07:07:24.426Z,17.23
2018-08-03T07:09:52.885Z,15.80
2018-08-03T07:12:21.317Z,17.05
2018-08-03T07:14:49.862Z,17.32
2018-08-03T07:17:18.893Z,17.27
2018-08-03T07:19:47.460Z,17.40
2018-08-03T07:22:15.889Z,18.75
2018-08-03T07:24:44.797Z,18.32
2018-08-03T07:27:13.440Z,18.45
2018-08-03T07:29:43.095Z,17.52
2018-08-03T07:32:13.061Z,17.23
2018-08-03T07:34:41.669Z,13.93
2018-08-03T07:37:10.340Z,17.17
2018-08-03T07:39:38.991Z,19.35
2018-08-03T07:42:10.654Z,18.35
2018-08-03T07:44:39.234Z,16.52
2018-08-03T07:47:08.623Z,17.23
2018-08-03T07:49:37.360Z,16.30
2018-08-03T07:52:06.012Z,16.23
2018-08-03T07:54:35.495Z,17.80
2018-08-03T07:57:04.233Z,17.05
2018-08-03T07:59:32.732Z,17.48
2018-08-03T08:02:01.201Z,17.05
2018-08-03T08:04:29.919Z,18.30
2018-08-03T08:06:58.607Z,16.00
2018-08-03T08:09:27.055Z,15.78
2018-08-03T08:11:55.770Z,17.70
2018-08-03T08:14:24.408Z,16.85
2018-08-03T08:16:52.967Z,17.00
2018-08-03T08:19:21.368Z,19.40
2018-08-03T08:21:50.042Z,18.12
2018-08-03T08:24:18.430Z,16.00
2018-08-03T08:26:46.836Z,17.05
2018-08-03T08:29:15.357Z,18.17
2018-08-03T08:31:45.116Z,17.70
2018-08-03T08:34:14.113Z,17.73
2018-08-03T08:36:42.845Z,18.20
2018-08-03T08:39:13.109Z,17.90
2018-08-03T08:41:42.455Z,17.55
2018-08-03T08:44:11.653Z,17.17
2018-08-03T08:46:40.782Z,15.53
2018-08-03T08:49:09.617Z,16.32
2018-08-03T08:51:38.251Z,17.07
2018-08-03T08:54:07.093Z,16.27
2018-08-03T08:56:35.717Z,17.12
2018-08-03T08:59:04.570Z,18.27
2018-08-03T09:01:33.917Z,17.57
2018-08-03T09:04:02.344Z,16.87
2018-08-03T09:06:30.801Z,19.62
2018-08-03T09:08:59.548Z,16.40
2018-08-03T09:11:27.982Z,18.42
2018-08-03T09:13:57.260Z,19.45
2018-08-03T09:16:26.226Z,20.23
2018-08-03T09:18:54.806Z,17.15
2018-08-03T09:21:23.672Z,18.17
2018-08-03T09:23:52.073Z,19.05
2018-08-03T09:26:20.545Z,16.73
2018-08-03T09:28:49.238Z,19.48
2018-08-03T09:31:18.228Z,17.87
2018-08-03T09:33:47.667Z,17.85
2018-08-03T09:36:16.453Z,17.05
2018-08-03T09:38:45.976Z,16.95
2018-08-03T09:41:14.692Z,16.37
2018-08-03T09:43:44.643Z,18.37
2018-08-03T09:46:13.232Z,18.07
2018-08-03T09:48:42.182Z,19.32
2018-08-03T09:51:10.760Z,21.97
2018-08-03T09:53:40.840Z,18.82
2018-08-03T09:56:09.680Z,18.15
2018-08-03T09:58:38.441Z,16.87
2018-08-03T10:01:10.256Z,15.10
2018-08-03T10:03:39.207Z,17.62
2018-08-03T10:06:08.878Z,15.53
2018-08-03T10:08:37.616Z,17.55
2018-08-03T10:11:06.631Z,19.62
2018-08-03T10:13:35.159Z,17.35
2018-08-03T10:16:04.293Z,16.57
2018-08-03T10:18:33.341Z,15.88
2018-08-03T10:21:02.001Z,14.63
2018-08-03T10:23:30.822Z,15.35
2018-08-03T10:25:59.435Z,13.15
2018-08-03T10:28:27.994Z,17.55
2018-08-03T10:30:58.205Z,14.47
2018-08-03T10:33:26.634Z,16.42
2018-08-03T10:35:55.139Z,16.67
2018-08-03T10:38:23.953Z,14.40
2018-08-03T10:40:53.437Z,13.95
2018-08-03T10:43:21.855Z,16.12
2018-08-03T10:45:50.305Z,16.05
2018-08-03T10:48:19.281Z,15.83
2018-08-03T10:50:49.221Z,15.40
2018-08-03T10:53:22.301Z,15.78
2018-08-03T10:55:50.905Z,13.80
2018-08-03T10:58:20.777Z,15.40
2018-08-03T11:00:50.103Z,14.80
2018-08-03T11:03:18.631Z,15.98
2018-08-03T11:05:47.297Z,15.63
2018-08-03T11:08:16.182Z,16.60
2018-08-03T11:10:44.812Z,15.63
2018-08-03T11:13:14.360Z,14.43
2018-08-03T11:15:42.856Z,18.12
2018-08-03T11:18:11.486Z,17.05
2018-08-03T11:20:41.701Z,16.82
2018-08-03T11:23:10.160Z,16.62
2018-08-03T11:25:38.785Z,15.70
2018-08-03T11:28:07.650Z,14.50
2018-08-03T11:30:38.533Z,16.37
2018-08-03T11:33:07.808Z,15.67
2018-08-03T11:35:40.496Z,12.60
2018-08-03T11:38:09.812Z,12.90
2018-08-03T11:40:38.392Z,14.33
2018-08-03T11:43:07.386Z,14.07
2018-08-03T11:45:36.854Z,13.60
2018-08-03T11:48:05.428Z,13.27
2018-08-03T11:50:34.276Z,13.50
2018-08-03T11:53:02.959Z,11.77
2018-08-03T11:55:31.376Z,11.50
2018-08-03T11:58:00.704Z,12.70
2018-08-03T12:00:29.635Z,12.77
2018-08-03T12:02:58.272Z,12.27
2018-08-03T12:05:26.923Z,12.97
2018-08-03T12:07:56.595Z,12.90
2018-08-03T12:10:25.307Z,11.07
2018-08-03T12:12:53.693Z,11.97
2018-08-03T12:15:22.098Z,13.13
2018-08-03T12:17:50.581Z,13.80
2018-08-03T12:20:20.350Z,12.63
2018-08-03T12:22:49.003Z,13.50
2018-08-03T12:25:17.445Z,11.40
2018-08-03T12:27:46.378Z,10.27
2018-08-03T12:30:15.084Z,10.37
2018-08-03T12:32:43.579Z,11.80
2018-08-03T12:35:12.868Z,11.20
2018-08-03T12:37:41.801Z,11.13
2018-08-03T12:40:10.204Z,10.70
2018-08-03T12:42:40.176Z,10.67
2018-08-03T12:45:08.580Z,9.47
2018-08-03T12:47:36.977Z,11.10
2018-08-03T12:50:05.420Z,10.43
2018-08-03T12:52:34.269Z,9.80
2018-08-03T12:55:02.620Z,9.53
2018-08-03T12:57:31.756Z,9.57
2018-08-03T13:00:00.804Z,10.43
2018-08-03T13:02:29.331Z,10.43
2018-08-03T13:04:57.736Z,10.83
2018-08-03T13:07:26.460Z,11.10
2018-08-03T13:09:54.529Z,10.83
2018-08-03T13:12:22.922Z,11.17
2018-08-03T13:14:51.399Z,10.27
2018-08-03T13:17:19.985Z,11.10
2018-08-03T13:19:48.820Z,10.00
2018-08-03T13:22:20.593Z,10.07
2018-08-03T13:24:49.525Z,11.03
2018-08-03T13:27:20.199Z,10.47
2018-08-03T13:29:49.049Z,9.93
2018-08-03T13:32:18.665Z,10.40
2018-08-03T13:34:47.072Z,10.10
2018-08-03T13:37:15.512Z,10.33
2018-08-03T13:39:45.732Z,9.63
2018-08-03T13:42:14.538Z,9.90
2018-08-03T13:44:43.101Z,9.63
2018-08-03T13:47:11.795Z,10.27
2018-08-03T13:49:40.364Z,10.23
2018-08-03T13:52:09.247Z,9.87
2018-08-03T13:54:38.134Z,10.07
2018-08-03T13:57:06.618Z,10.43
2018-08-03T13:59:35.218Z,10.50
2018-08-03T14:02:18.236Z,9.93
2018-08-03T14:04:46.864Z,9.87
2018-08-03T14:07:15.606Z,10.10
2018-08-03T14:09:44.543Z,10.30
2018-08-03T14:12:13.944Z,10.20
2018-08-03T14:14:43.042Z,10.23
2018-08-03T14:17:12.608Z,9.80
2018-08-03T14:19:41.713Z,10.17
2018-08-03T14:22:10.339Z,10.30
2018-08-03T14:24:39.059Z,9.77
2018-08-03T14:27:08.449Z,10.30
2018-08-03T14:29:37.486Z,10.17
2018-08-03T14:32:06.347Z,9.90
2018-08-03T14:34:35.067Z,9.67
2018-08-03T14:37:04.705Z,9.93
2018-08-03T14:39:33.581Z,10.20
2018-08-03T14:42:02.055Z,9.77
2018-08-03T14:44:30.573Z,9.70
2018-08-03T14:46:59.271Z,9.47
2018-08-03T14:49:27.910Z,9.07
2018-08-03T14:51:56.520Z,9.93
2018-08-03T14:54:25.840Z,10.03
2018-08-03T14:56:54.285Z,9.37
2018-08-03T14:59:23.783Z,9.17
2018-08-03T15:01:52.236Z,9.20
2018-08-03T15:04:21.229Z,8.87
2018-08-03T15:06:51.743Z,9.50
2018-08-03T15:09:20.189Z,9.07
2018-08-03T15:11:49.021Z,8.73
2018-08-03T15:14:17.826Z,8.67
2018-08-03T15:16:46.532Z,9.43
2018-08-03T15:19:14.927Z,9.50
2018-08-03T15:21:43.583Z,9.00
2018-08-03T15:24:12.223Z,9.03
2018-08-03T15:26:41.563Z,8.60
2018-08-03T15:29:09.991Z,8.97
2018-08-03T15:31:38.425Z,10.17
2018-08-03T15:34:07.124Z,8.97
2018-08-03T15:36:35.827Z,8.80
2018-08-03T15:39:06.543Z,9.03
2018-08-03T15:41:34.972Z,9.17
2018-08-03T15:44:03.811Z,9.60
2018-08-03T15:46:32.365Z,9.03
2018-08-03T15:49:01.246Z,9.33
2018-08-03T15:51:29.861Z,8.77
2018-08-03T15:53:59.772Z,9.27
2018-08-03T15:56:28.480Z,9.20
2018-08-03T15:58:56.944Z,9.53
2018-08-03T16:01:26.228Z,9.77
2018-08-03T16:03:55.203Z,9.93
2018-08-03T16:06:24.065Z,10.07
2018-08-03T16:08:53.461Z,10.00
2018-08-03T16:11:22.358Z,10.37
2018-08-03T16:13:51.184Z,10.33
2018-08-03T16:16:19.957Z,10.23
2018-08-03T16:18:48.687Z,10.43
2018-08-03T16:21:17.556Z,10.43
2018-08-03T16:23:46.240Z,10.13
2018-08-03T16:26:15.111Z,10.90
2018-08-03T16:28:43.964Z,10.13
2018-08-03T16:31:12.566Z,10.40
2018-08-03T16:33:42.434Z,10.40
2018-08-03T16:36:11.336Z,10.87
2018-08-03T16:38:40.625Z,10.87
2018-08-03T16:41:09.394Z,10.60
2018-08-03T16:43:37.900Z,10.93
2018-08-03T16:46:07.182Z,11.17
2018-08-03T16:48:36.071Z,10.93
2018-08-03T16:51:05.075Z,11.43
2018-08-03T16:53:33.791Z,11.80
2018-08-03T16:56:02.314Z,11.37
2018-08-03T16:58:30.721Z,11.70
2018-08-03T17:00:59.253Z,11.87
2018-08-03T17:03:27.948Z,12.40
2018-08-03T17:05:56.594Z,11.83
2018-08-03T17:08:25.706Z,12.80
2018-08-03T17:10:54.382Z,12.60
2018-08-03T17:13:23.134Z,12.73
2018-08-03T17:15:52.114Z,12.30
2018-08-03T17:18:20.589Z,11.97
2018-08-03T17:20:49.024Z,12.23
2018-08-03T17:23:17.544Z,12.07
2018-08-03T17:25:46.107Z,11.67
2018-08-03T17:28:14.692Z,12.23
2018-08-03T17:30:43.945Z,11.37
2018-08-03T17:33:12.597Z,11.90
2018-08-03T17:35:42.047Z,11.70
2018-08-03T17:38:12.410Z,12.43
2018-08-03T17:40:40.940Z,12.40
2018-08-03T17:43:09.817Z,12.43
2018-08-03T17:45:38.264Z,12.00
2018-08-03T17:48:07.501Z,12.10
2018-08-03T17:50:36.713Z,12.07
2018-08-03T17:53:05.877Z,11.30
2018-08-03T17:55:34.410Z,11.83
2018-08-03T17:58:03.156Z,12.53
2018-08-03T18:00:32.108Z,12.03
2018-08-03T18:03:01.662Z,12.27
2018-08-03T18:05:30.228Z,12.53
2018-08-03T18:07:58.756Z,12.37
2018-08-03T18:10:28.567Z,12.37
2018-08-03T18:12:57.303Z,12.20
2018-08-03T18:15:25.892Z,12.47
2018-08-03T18:17:54.325Z,12.43
2018-08-03T18:20:22.940Z,11.63
2018-08-03T18:22:51.404Z,12.60
2018-08-03T18:25:19.957Z,13.10
2018-08-03T18:27:48.659Z,12.73
2018-08-03T18:30:17.747Z,13.03
2018-08-03T18:32:47.310Z,13.27
2018-08-03T18:35:16.050Z,12.43
2018-08-03T18:37:45.433Z,12.87
2018-08-03T18:40:14.298Z,11.87
2018-08-03T18:42:43.701Z,12.30
2018-08-03T18:45:12.101Z,11.47
2018-08-03T18:47:40.545Z,11.90
2018-08-03T18:50:09.532Z,12.80
2018-08-03T18:52:38.733Z,11.70
2018-08-03T18:55:07.945Z,11.73
2018-08-03T18:57:36.359Z,11.77
2018-08-03T19:00:06.460Z,12.13
2018-08-03T19:02:35.728Z,12.47
2018-08-03T19:05:04.695Z,11.50
2018-08-03T19:07:33.573Z,11.90
2018-08-03T19:10:01.766Z,11.43
2018-08-03T19:12:30.870Z,11.90
2018-08-03T19:14:59.253Z,12.30
2018-08-03T19:17:28.803Z,12.00
2018-08-03T19:19:57.400Z,11.80
2018-08-03T19:22:26.022Z,12.73
2018-08-03T19:24:55.412Z,13.57
2018-08-03T19:27:25.450Z,12.30
2018-08-03T19:29:54.409Z,12.77
2018-08-03T19:32:23.667Z,12.80
2018-08-03T19:34:52.078Z,12.87
2018-08-03T19:37:21.064Z,13.00
2018-08-03T19:39:49.984Z,12.73
2018-08-03T19:42:18.636Z,12.87
2018-08-03T19:44:47.739Z,12.40
2018-08-03T19:47:18.101Z,12.60
2018-08-03T19:49:46.541Z,13.10
2018-08-03T19:52:15.101Z,12.60
2018-08-03T19:54:44.116Z,13.30
2018-08-03T19:57:13.616Z,12.60
2018-08-03T19:59:42.438Z,12.40
2018-08-03T20:02:11.149Z,12.47
2018-08-03T20:04:41.685Z,12.20
2018-08-03T20:07:10.124Z,12.47
2018-08-03T20:09:38.778Z,11.97
2018-08-03T20:12:09.499Z,12.77
2018-08-03T20:14:38.223Z,12.90
2018-08-03T20:17:07.299Z,13.03
2018-08-03T20:19:36.344Z,12.77
2018-08-03T20:22:07.814Z,13.10
2018-08-03T20:24:36.485Z,13.20
2018-08-03T20:27:04.698Z,12.80
2018-08-03T20:29:35.333Z,13.80
2018-08-03T20:32:04.886Z,13.40
2018-08-03T20:34:33.413Z,13.23
2018-08-03T20:37:02.369Z,13.67
2018-08-03T20:39:31.587Z,13.53
2018-08-03T20:42:00.296Z,12.70
2018-08-03T20:44:28.958Z,13.43
2018-08-03T20:46:57.964Z,13.60
2018-08-03T20:49:27.073Z,12.53
2018-08-03T20:51:55.936Z,13.57
2018-08-03T20:54:24.578Z,13.20
2018-08-03T20:56:54.350Z,13.40
2018-08-03T20:59:23.723Z,14.00
2018-08-03T21:01:52.132Z,14.70
2018-08-03T21:04:21.301Z,14.30
2018-08-03T21:06:50.627Z,14.23
2018-08-03T21:09:19.255Z,14.20
2018-08-03T21:11:47.723Z,13.97
2018-08-03T21:14:16.238Z,14.63
2018-08-03T21:16:44.689Z,14.20
2018-08-03T21:19:13.438Z,14.03
2018-08-03T21:21:42.046Z,14.03
2018-08-03T21:24:10.587Z,14.10
2018-08-03T21:26:39.250Z,15.07
2018-08-03T21:29:08.849Z,14.77
2018-08-03T21:31:38.533Z,14.13
2018-08-03T21:34:07.175Z,15.27
2018-08-03T21:36:36.020Z,15.30
2018-08-03T21:39:07.348Z,15.07
2018-08-03T21:41:35.953Z,15.40
2018-08-03T21:44:05.803Z,15.13
2018-08-03T21:46:34.943Z,14.80
2018-08-03T21:49:03.887Z,15.47
2018-08-03T21:51:33.107Z,15.57
2018-08-03T21:54:01.864Z,15.33
